createdAt,value
2018-11-04T00:00:05.215Z,926.4
2018-11-04T00:00:17.763Z,926.41
2018-11-04T00:00:30.309Z,926.41
2018-11-04T00:00:43.330Z,926.45
2018-11-04T00:00:55.836Z,926.45
2018-11-04T00:01:08.777Z,926.48
2018-11-04T00:01:21.306Z,926.47
2018-11-04T00:01:34.461Z,926.46
2018-11-04T00:01:47.843Z,926.51
2018-11-04T00:01:59.918Z,926.53
2018-11-04T00:02:12.518Z,926.55
2018-11-04T00:02:25.569Z,926.58
2018-11-04T00:02:38.584Z,926.57
2018-11-04T00:02:51.534Z,926.56
2018-11-04T00:03:03.141Z,926.58
2018-11-04T00:03:16.132Z,926.66
2018-11-04T00:03:29.090Z,926.64
2018-11-04T00:03:40.675Z,926.65
2018-11-04T00:03:53.638Z,926.65
2018-11-04T00:04:06.181Z,926.71
2018-11-04T00:04:18.689Z,926.7
2018-11-04T00:04:31.211Z,926.69
2018-11-04T00:04:43.779Z,926.71
2018-11-04T00:04:56.753Z,926.69
2018-11-04T00:05:09.731Z,926.71
2018-11-04T00:05:22.704Z,926.71
2018-11-04T00:05:35.293Z,926.7
2018-11-04T00:05:48.296Z,926.76
2018-11-04T00:06:01.299Z,926.81
2018-11-04T00:06:13.870Z,926.78
2018-11-04T00:06:26.002Z,926.82
2018-11-04T00:06:38.069Z,926.84
2018-11-04T00:06:50.999Z,926.82
2018-11-04T00:07:03.513Z,926.87
2018-11-04T00:07:16.527Z,926.82
2018-11-04T00:07:29.059Z,926.82
2018-11-04T00:07:42.067Z,926.87
2018-11-04T00:07:54.835Z,926.87
2018-11-04T00:08:06.600Z,926.87
2018-11-04T00:08:18.708Z,926.86
2018-11-04T00:08:31.744Z,926.89
2018-11-04T00:08:44.756Z,926.86
2018-11-04T00:08:57.315Z,926.88
2018-11-04T00:09:09.454Z,926.86
2018-11-04T00:09:21.548Z,926.9
2018-11-04T00:09:34.619Z,926.89
2018-11-04T00:09:47.616Z,926.87
2018-11-04T00:10:00.631Z,926.93
2018-11-04T00:10:13.582Z,926.91
2018-11-04T00:10:26.598Z,926.92
2018-11-04T00:10:39.569Z,926.92
2018-11-04T00:10:51.678Z,926.88
2018-11-04T00:11:04.612Z,926.89
2018-11-04T00:11:17.118Z,926.82
2018-11-04T00:11:30.342Z,926.87
2018-11-04T00:11:42.911Z,926.89
2018-11-04T00:11:55.474Z,926.87
2018-11-04T00:12:08.500Z,926.85
2018-11-04T00:12:21.449Z,926.88
2018-11-04T00:12:34.035Z,926.92
2018-11-04T00:12:47.007Z,926.9
2018-11-04T00:13:00.081Z,926.85
2018-11-04T00:13:13.098Z,926.89
2018-11-04T00:13:26.693Z,926.9
2018-11-04T00:13:38.739Z,926.88
2018-11-04T00:13:51.705Z,926.94
2018-11-04T00:14:04.253Z,926.96
2018-11-04T00:14:17.281Z,926.9
2018-11-04T00:14:29.358Z,926.9
2018-11-04T00:14:42.372Z,926.9
2018-11-04T00:14:55.555Z,926.92
2018-11-04T00:15:07.781Z,926.93
2018-11-04T00:15:20.290Z,926.92
2018-11-04T00:15:32.787Z,926.97
2018-11-04T00:15:45.796Z,926.91
2018-11-04T00:15:58.730Z,926.93
2018-11-04T00:16:11.273Z,926.87
2018-11-04T00:16:24.230Z,926.92
2018-11-04T00:16:36.738Z,926.9
2018-11-04T00:16:49.783Z,926.87
2018-11-04T00:17:02.815Z,926.89
2018-11-04T00:17:14.801Z,926.92
2018-11-04T00:17:27.819Z,926.9
2018-11-04T00:17:40.365Z,926.92
2018-11-04T00:17:53.392Z,926.89
2018-11-04T00:18:06.458Z,926.83
2018-11-04T00:18:19.457Z,926.86
2018-11-04T00:18:32.047Z,926.86
2018-11-04T00:18:45.038Z,926.85
2018-11-04T00:18:57.530Z,926.83
2018-11-04T00:19:10.078Z,926.82
2018-11-04T00:19:22.590Z,926.81
2018-11-04T00:19:35.134Z,926.76
2018-11-04T00:19:48.083Z,926.75
2018-11-04T00:20:01.109Z,926.75
2018-11-04T00:20:12.795Z,926.73
2018-11-04T00:20:25.690Z,926.7
2018-11-04T00:20:38.334Z,926.69
2018-11-04T00:20:50.787Z,926.7
2018-11-04T00:21:03.289Z,926.66
2018-11-04T00:21:15.348Z,926.66
2018-11-04T00:21:27.400Z,926.64
2018-11-04T00:21:40.253Z,926.64
2018-11-04T00:21:52.810Z,926.58
2018-11-04T00:22:04.853Z,926.59
2018-11-04T00:22:17.784Z,926.58
2018-11-04T00:22:30.779Z,926.57
2018-11-04T00:22:43.739Z,926.52
2018-11-04T00:22:56.264Z,926.56
2018-11-04T00:23:08.852Z,926.5
2018-11-04T00:23:21.386Z,926.54
2018-11-04T00:23:33.886Z,926.5
2018-11-04T00:23:46.993Z,926.49
2018-11-04T00:24:00.326Z,926.52
2018-11-04T00:24:14.218Z,926.56
2018-11-04T00:24:26.757Z,926.53
2018-11-04T00:24:39.328Z,926.51
2018-11-04T00:24:52.343Z,926.5
2018-11-04T00:25:05.296Z,926.51
2018-11-04T00:25:17.864Z,926.5
2018-11-04T00:25:30.877Z,926.54
2018-11-04T00:25:43.434Z,926.52
2018-11-04T00:25:56.430Z,926.48
2018-11-04T00:26:09.424Z,926.55
2018-11-04T00:26:22.414Z,926.51
2018-11-04T00:26:35.439Z,926.54
2018-11-04T00:26:47.510Z,926.51
2018-11-04T00:27:00.192Z,926.52
2018-11-04T00:27:12.868Z,926.51
2018-11-04T00:27:24.724Z,926.54
2018-11-04T00:27:37.881Z,926.49
2018-11-04T00:27:50.869Z,926.5
2018-11-04T00:28:03.419Z,926.48
2018-11-04T00:28:16.428Z,926.52
2018-11-04T00:28:29.402Z,926.56
2018-11-04T00:28:41.948Z,926.54
2018-11-04T00:28:54.977Z,926.49
2018-11-04T00:29:07.950Z,926.51
2018-11-04T00:29:20.943Z,926.46
2018-11-04T00:29:33.518Z,926.5
2018-11-04T00:29:45.828Z,926.52
2018-11-04T00:29:59.755Z,926.54
2018-11-04T00:30:12.499Z,926.5
2018-11-04T00:30:25.099Z,926.53
2018-11-04T00:30:37.966Z,926.5
2018-11-04T00:30:50.974Z,926.44
2018-11-04T00:31:03.531Z,926.43
2018-11-04T00:31:16.132Z,926.47
2018-11-04T00:31:29.129Z,926.49
2018-11-04T00:31:42.110Z,926.53
2018-11-04T00:31:53.300Z,926.47
2018-11-04T00:32:05.419Z,926.47
2018-11-04T00:32:18.506Z,926.45
2018-11-04T00:32:31.020Z,926.46
2018-11-04T00:32:43.981Z,926.46
2018-11-04T00:32:56.983Z,926.43
2018-11-04T00:33:09.997Z,926.43
2018-11-04T00:33:23.041Z,926.43
2018-11-04T00:33:36.039Z,926.46
2018-11-04T00:33:48.631Z,926.45
2018-11-04T00:34:01.665Z,926.46
2018-11-04T00:34:14.697Z,926.43
2018-11-04T00:34:27.224Z,926.44
2018-11-04T00:34:39.465Z,926.44
2018-11-04T00:34:51.055Z,926.44
2018-11-04T00:35:03.062Z,926.41
2018-11-04T00:35:15.088Z,926.38
2018-11-04T00:35:28.065Z,926.35
2018-11-04T00:35:40.577Z,926.38
2018-11-04T00:35:53.114Z,926.4
2018-11-04T00:36:06.062Z,926.34
2018-11-04T00:36:18.578Z,926.31
2018-11-04T00:36:31.149Z,926.29
2018-11-04T00:36:43.927Z,926.28
2018-11-04T00:36:56.995Z,926.27
2018-11-04T00:37:10.071Z,926.24
2018-11-04T00:37:23.103Z,926.22
2018-11-04T00:37:35.225Z,926.23
2018-11-04T00:37:48.183Z,926.22
2018-11-04T00:38:01.137Z,926.24
2018-11-04T00:38:14.152Z,926.25
2018-11-04T00:38:27.132Z,926.26
2018-11-04T00:38:39.729Z,926.25
2018-11-04T00:38:52.795Z,926.3
2018-11-04T00:39:05.330Z,926.25
2018-11-04T00:39:18.392Z,926.19
2018-11-04T00:39:31.401Z,926.25
2018-11-04T00:39:43.488Z,926.27
2018-11-04T00:39:55.928Z,926.27
2018-11-04T00:40:08.435Z,926.29
2018-11-04T00:40:20.511Z,926.2
2018-11-04T00:40:32.625Z,926.22
2018-11-04T00:40:47.089Z,926.21
2018-11-04T00:41:00.128Z,926.24
2018-11-04T00:41:12.630Z,926.25
2018-11-04T00:41:24.784Z,926.21
2018-11-04T00:41:37.312Z,926.23
2018-11-04T00:41:50.509Z,926.18
2018-11-04T00:42:03.533Z,926.21
2018-11-04T00:42:16.079Z,926.19
2018-11-04T00:42:28.717Z,926.19
2018-11-04T00:42:40.335Z,926.25
2018-11-04T00:42:52.884Z,926.27
2018-11-04T00:43:05.440Z,926.27
2018-11-04T00:43:17.065Z,926.23
2018-11-04T00:43:30.165Z,926.25
2018-11-04T00:43:42.653Z,926.21
2018-11-04T00:43:55.200Z,926.2
2018-11-04T00:44:06.858Z,926.19
2018-11-04T00:44:19.458Z,926.2
2018-11-04T00:44:32.496Z,926.22
2018-11-04T00:44:45.030Z,926.22
2018-11-04T00:44:57.941Z,926.19
2018-11-04T00:45:09.852Z,926.24
2018-11-04T00:45:22.810Z,926.26
2018-11-04T00:45:36.758Z,926.29
2018-11-04T00:45:49.594Z,926.27
2018-11-04T00:46:02.202Z,926.22
2018-11-04T00:46:14.901Z,926.21
2018-11-04T00:46:28.108Z,926.21
2018-11-04T00:46:41.244Z,926.23
2018-11-04T00:46:54.382Z,926.22
2018-11-04T00:47:07.345Z,926.2
2018-11-04T00:47:20.008Z,926.21
2018-11-04T00:47:32.648Z,926.2
2018-11-04T00:47:45.642Z,926.27
2018-11-04T00:47:57.315Z,926.24
2018-11-04T00:48:10.361Z,926.25
2018-11-04T00:48:23.023Z,926.29
2018-11-04T00:48:36.284Z,926.26
2018-11-04T00:48:48.804Z,926.33
2018-11-04T00:49:00.868Z,926.33
2018-11-04T00:49:13.906Z,926.33
2018-11-04T00:49:26.903Z,926.32
2018-11-04T00:49:39.461Z,926.36
2018-11-04T00:49:52.501Z,926.38
2018-11-04T00:50:05.019Z,926.39
2018-11-04T00:50:17.982Z,926.36
2018-11-04T00:50:30.491Z,926.39
2018-11-04T00:50:42.980Z,926.4
2018-11-04T00:50:55.995Z,926.4
2018-11-04T00:51:08.517Z,926.41
2018-11-04T00:51:21.030Z,926.42
2018-11-04T00:51:33.578Z,926.41
2018-11-04T00:51:47.307Z,926.46
2018-11-04T00:52:00.285Z,926.46
2018-11-04T00:52:12.825Z,926.45
2018-11-04T00:52:25.302Z,926.45
2018-11-04T00:52:37.887Z,926.45
2018-11-04T00:52:50.879Z,926.45
2018-11-04T00:53:03.901Z,926.44
2018-11-04T00:53:16.764Z,926.46
2018-11-04T00:53:29.763Z,926.48
2018-11-04T00:53:42.288Z,926.45
2018-11-04T00:53:54.788Z,926.5
2018-11-04T00:54:07.800Z,926.54
2018-11-04T00:54:20.811Z,926.56
2018-11-04T00:54:33.820Z,926.5
2018-11-04T00:54:46.767Z,926.55
2018-11-04T00:54:59.353Z,926.55
2018-11-04T00:55:11.849Z,926.54
2018-11-04T00:55:24.455Z,926.52
2018-11-04T00:55:37.524Z,926.5
2018-11-04T00:55:50.479Z,926.52
2018-11-04T00:56:02.502Z,926.52
2018-11-04T00:56:15.018Z,926.56
2018-11-04T00:56:27.577Z,926.52
2018-11-04T00:56:40.663Z,926.53
2018-11-04T00:56:53.223Z,926.53
2018-11-04T00:57:05.284Z,926.54
2018-11-04T00:57:17.805Z,926.53
2018-11-04T00:57:30.801Z,926.53
2018-11-04T00:57:43.819Z,926.53
2018-11-04T00:57:56.882Z,926.55
2018-11-04T00:58:08.970Z,926.54
2018-11-04T00:58:21.538Z,926.55
2018-11-04T00:58:34.508Z,926.52
2018-11-04T00:58:46.091Z,926.54
2018-11-04T00:58:58.578Z,926.56
2018-11-04T00:59:11.572Z,926.57
2018-11-04T00:59:24.614Z,926.54
2018-11-04T00:59:37.630Z,926.57
2018-11-04T00:59:50.624Z,926.54
2018-11-04T01:00:03.664Z,926.57
2018-11-04T01:00:16.194Z,926.58
2018-11-04T01:00:29.198Z,926.54
2018-11-04T01:00:41.789Z,926.54
2018-11-04T01:00:54.281Z,926.56
2018-11-04T01:01:06.829Z,926.56
2018-11-04T01:01:19.366Z,926.56
2018-11-04T01:01:31.575Z,926.53
2018-11-04T01:01:44.839Z,926.56
2018-11-04T01:01:56.915Z,926.56
2018-11-04T01:02:09.919Z,926.53
2018-11-04T01:02:22.938Z,926.56
2018-11-04T01:02:35.471Z,926.56
2018-11-04T01:02:47.477Z,926.59
2018-11-04T01:03:00.009Z,926.59
2018-11-04T01:03:12.526Z,926.58
2018-11-04T01:03:25.535Z,926.59
2018-11-04T01:03:38.085Z,926.62
2018-11-04T01:03:49.643Z,926.6
2018-11-04T01:04:02.631Z,926.59
2018-11-04T01:04:15.154Z,926.61
2018-11-04T01:04:28.194Z,926.61
2018-11-04T01:04:40.733Z,926.58
2018-11-04T01:04:52.818Z,926.59
2018-11-04T01:05:05.298Z,926.6
2018-11-04T01:05:17.853Z,926.6
2018-11-04T01:05:29.862Z,926.61
2018-11-04T01:05:42.868Z,926.64
2018-11-04T01:05:55.368Z,926.65
2018-11-04T01:06:07.416Z,926.59
2018-11-04T01:06:20.391Z,926.65
2018-11-04T01:06:33.374Z,926.63
2018-11-04T01:06:46.397Z,926.64
2018-11-04T01:06:59.056Z,926.64
2018-11-04T01:07:11.110Z,926.6
2018-11-04T01:07:23.259Z,926.62
2018-11-04T01:07:36.320Z,926.64
2018-11-04T01:07:49.443Z,926.62
2018-11-04T01:08:01.978Z,926.63
2018-11-04T01:08:14.583Z,926.65
2018-11-04T01:08:27.603Z,926.67
2018-11-04T01:08:40.193Z,926.6
2018-11-04T01:08:53.316Z,926.64
2018-11-04T01:09:06.804Z,926.64
2018-11-04T01:09:20.771Z,926.62
2018-11-04T01:09:33.819Z,926.6
2018-11-04T01:09:46.361Z,926.63
2018-11-04T01:09:58.897Z,926.6
2018-11-04T01:10:11.399Z,926.63
2018-11-04T01:10:24.485Z,926.6
2018-11-04T01:10:37.069Z,926.6
2018-11-04T01:10:50.057Z,926.61
2018-11-04T01:11:02.155Z,926.63
2018-11-04T01:11:15.264Z,926.59
2018-11-04T01:11:28.288Z,926.58
2018-11-04T01:11:40.374Z,926.57
2018-11-04T01:11:53.173Z,926.56
2018-11-04T01:12:06.426Z,926.59
2018-11-04T01:12:19.527Z,926.58
2018-11-04T01:12:32.152Z,926.6
2018-11-04T01:12:45.295Z,926.59
2018-11-04T01:12:57.359Z,926.55
2018-11-04T01:13:10.356Z,926.56
2018-11-04T01:13:22.873Z,926.55
2018-11-04T01:13:34.964Z,926.57
2018-11-04T01:13:47.895Z,926.58
2018-11-04T01:14:01.138Z,926.57
2018-11-04T01:14:13.109Z,926.57
2018-11-04T01:14:26.136Z,926.55
2018-11-04T01:14:38.677Z,926.57
2018-11-04T01:14:51.211Z,926.58
2018-11-04T01:15:02.761Z,926.58
2018-11-04T01:15:14.807Z,926.56
2018-11-04T01:15:26.882Z,926.57
2018-11-04T01:15:40.146Z,926.58
2018-11-04T01:15:52.669Z,926.57
2018-11-04T01:16:05.264Z,926.57
2018-11-04T01:16:17.802Z,926.56
2018-11-04T01:16:30.295Z,926.57
2018-11-04T01:16:42.326Z,926.61
2018-11-04T01:16:54.846Z,926.59
2018-11-04T01:17:07.432Z,926.58
2018-11-04T01:17:19.482Z,926.59
2018-11-04T01:17:31.957Z,926.58
2018-11-04T01:17:44.495Z,926.57
2018-11-04T01:17:57.004Z,926.56
2018-11-04T01:18:10.021Z,926.56
2018-11-04T01:18:22.555Z,926.58
2018-11-04T01:18:35.126Z,926.58
2018-11-04T01:18:48.103Z,926.56
2018-11-04T01:19:00.670Z,926.56
2018-11-04T01:19:12.775Z,926.54
2018-11-04T01:19:25.829Z,926.53
2018-11-04T01:19:37.907Z,926.54
2018-11-04T01:19:50.450Z,926.54
2018-11-04T01:20:03.435Z,926.53
2018-11-04T01:20:16.002Z,926.55
2018-11-04T01:20:28.533Z,926.53
2018-11-04T01:20:41.075Z,926.51
2018-11-04T01:20:53.601Z,926.52
2018-11-04T01:21:06.850Z,926.52
2018-11-04T01:21:19.795Z,926.51
2018-11-04T01:21:32.296Z,926.53
2018-11-04T01:21:45.277Z,926.54
2018-11-04T01:21:57.287Z,926.52
2018-11-04T01:22:10.092Z,926.56
2018-11-04T01:22:23.135Z,926.58
2018-11-04T01:22:35.718Z,926.52
2018-11-04T01:22:48.750Z,926.51
2018-11-04T01:23:01.791Z,926.52
2018-11-04T01:23:13.880Z,926.54
2018-11-04T01:23:26.921Z,926.51
2018-11-04T01:23:39.933Z,926.5
2018-11-04T01:23:52.074Z,926.52
2018-11-04T01:24:04.655Z,926.53
2018-11-04T01:24:17.454Z,926.53
2018-11-04T01:24:31.321Z,926.51
2018-11-04T01:24:44.139Z,926.49
2018-11-04T01:24:55.800Z,926.5
2018-11-04T01:25:08.896Z,926.5
2018-11-04T01:25:21.887Z,926.51
2018-11-04T01:25:34.377Z,926.49
2018-11-04T01:25:47.371Z,926.52
2018-11-04T01:26:00.283Z,926.49
2018-11-04T01:26:13.258Z,926.54
2018-11-04T01:26:25.773Z,926.49
2018-11-04T01:26:38.711Z,926.49
2018-11-04T01:26:51.642Z,926.48
2018-11-04T01:27:04.799Z,926.51
2018-11-04T01:27:16.819Z,926.5
2018-11-04T01:27:29.363Z,926.49
2018-11-04T01:27:41.871Z,926.52
2018-11-04T01:27:53.973Z,926.47
2018-11-04T01:28:06.012Z,926.54
2018-11-04T01:28:18.498Z,926.52
2018-11-04T01:28:31.432Z,926.52
2018-11-04T01:28:44.485Z,926.56
2018-11-04T01:28:56.589Z,926.58
2018-11-04T01:29:09.140Z,926.59
2018-11-04T01:29:21.861Z,926.57
2018-11-04T01:29:34.404Z,926.58
2018-11-04T01:29:46.450Z,926.56
2018-11-04T01:29:59.449Z,926.58
2018-11-04T01:30:12.807Z,926.55
2018-11-04T01:30:26.837Z,926.53
2018-11-04T01:30:40.160Z,926.55
2018-11-04T01:30:53.201Z,926.53
2018-11-04T01:31:05.755Z,926.54
2018-11-04T01:31:18.292Z,926.52
2018-11-04T01:31:31.324Z,926.51
2018-11-04T01:31:43.398Z,926.54
2018-11-04T01:31:55.943Z,926.53
2018-11-04T01:32:08.471Z,926.52
2018-11-04T01:32:21.056Z,926.51
2018-11-04T01:32:34.132Z,926.5
2018-11-04T01:32:46.700Z,926.47
2018-11-04T01:32:59.792Z,926.47
2018-11-04T01:33:12.329Z,926.46
2018-11-04T01:33:25.400Z,926.44
2018-11-04T01:33:38.579Z,926.43
2018-11-04T01:33:51.743Z,926.45
2018-11-04T01:34:04.507Z,926.41
2018-11-04T01:34:17.510Z,926.4
2018-11-04T01:34:30.044Z,926.41
2018-11-04T01:34:42.697Z,926.38
2018-11-04T01:34:55.763Z,926.37
2018-11-04T01:35:08.879Z,926.4
2018-11-04T01:35:22.139Z,926.4
2018-11-04T01:35:35.101Z,926.37
2018-11-04T01:35:47.747Z,926.34
2018-11-04T01:36:00.911Z,926.27
2018-11-04T01:36:13.969Z,926.26
2018-11-04T01:36:27.077Z,926.24
2018-11-04T01:36:39.263Z,926.25
2018-11-04T01:36:51.961Z,926.23
2018-11-04T01:37:05.035Z,926.21
2018-11-04T01:37:18.180Z,926.19
2018-11-04T01:37:30.738Z,926.19
2018-11-04T01:37:43.876Z,926.15
2018-11-04T01:37:56.553Z,926.16
2018-11-04T01:38:08.703Z,926.14
2018-11-04T01:38:21.755Z,926.14
2018-11-04T01:38:34.786Z,926.1
2018-11-04T01:38:47.855Z,926.09
2018-11-04T01:39:00.437Z,926.08
2018-11-04T01:39:12.953Z,926.08
2018-11-04T01:39:25.918Z,926.08
2018-11-04T01:39:38.934Z,926.04
2018-11-04T01:39:52.016Z,926.06
2018-11-04T01:40:04.172Z,926.06
2018-11-04T01:40:17.199Z,926.02
2018-11-04T01:40:29.763Z,926.06
2018-11-04T01:40:42.739Z,926.06
2018-11-04T01:40:55.791Z,926.08
2018-11-04T01:41:08.873Z,926.08
2018-11-04T01:41:21.403Z,926.08
2018-11-04T01:41:33.933Z,926.03
2018-11-04T01:41:46.531Z,926.04
2018-11-04T01:41:59.549Z,926.1
2018-11-04T01:42:12.854Z,926.06
2018-11-04T01:42:25.472Z,926.06
2018-11-04T01:42:38.016Z,926.06
2018-11-04T01:42:50.548Z,926.08
2018-11-04T01:43:03.054Z,926.09
2018-11-04T01:43:16.083Z,926.1
2018-11-04T01:43:28.633Z,926.07
2018-11-04T01:43:41.639Z,926.11
2018-11-04T01:43:54.681Z,926.06
2018-11-04T01:44:07.761Z,926.08
2018-11-04T01:44:20.382Z,926.08
2018-11-04T01:44:32.956Z,926.1
2018-11-04T01:44:46.014Z,926.07
2018-11-04T01:44:58.692Z,926.09
2018-11-04T01:45:11.652Z,926.08
2018-11-04T01:45:24.268Z,926.1
2018-11-04T01:45:37.427Z,926.07
2018-11-04T01:45:50.420Z,926.12
2018-11-04T01:46:02.592Z,926.1
2018-11-04T01:46:14.662Z,926.14
2018-11-04T01:46:27.404Z,926.17
2018-11-04T01:46:40.540Z,926.15
2018-11-04T01:46:53.094Z,926.17
2018-11-04T01:47:05.221Z,926.15
2018-11-04T01:47:17.807Z,926.13
2018-11-04T01:47:30.473Z,926.15
2018-11-04T01:47:43.008Z,926.16
2018-11-04T01:47:55.998Z,926.17
2018-11-04T01:48:08.621Z,926.17
2018-11-04T01:48:20.764Z,926.17
2018-11-04T01:48:34.351Z,926.15
2018-11-04T01:48:46.964Z,926.15
2018-11-04T01:48:59.992Z,926.16
2018-11-04T01:49:12.595Z,926.18
2018-11-04T01:49:25.118Z,926.17
2018-11-04T01:49:36.770Z,926.13
2018-11-04T01:49:49.564Z,926.12
2018-11-04T01:50:02.578Z,926.15
2018-11-04T01:50:14.602Z,926.11
2018-11-04T01:50:27.535Z,926.11
2018-11-04T01:50:39.965Z,926.13
2018-11-04T01:50:52.617Z,926.09
2018-11-04T01:51:05.252Z,926.11
2018-11-04T01:51:18.375Z,926.12
2018-11-04T01:51:31.673Z,926.09
2018-11-04T01:51:44.281Z,926.07
2018-11-04T01:51:57.182Z,926.12
2018-11-04T01:52:08.918Z,926.11
2018-11-04T01:52:22.093Z,926.09
2018-11-04T01:52:35.204Z,926.1
2018-11-04T01:52:48.156Z,926.12
2018-11-04T01:53:01.138Z,926.15
2018-11-04T01:53:14.144Z,926.15
2018-11-04T01:53:27.034Z,926.18
2018-11-04T01:53:40.045Z,926.13
2018-11-04T01:53:53.121Z,926.19
2018-11-04T01:54:05.200Z,926.18
2018-11-04T01:54:17.761Z,926.2
2018-11-04T01:54:30.862Z,926.19
2018-11-04T01:54:43.869Z,926.21
2018-11-04T01:54:56.926Z,926.23
2018-11-04T01:55:09.928Z,926.19
2018-11-04T01:55:22.923Z,926.22
2018-11-04T01:55:35.421Z,926.19
2018-11-04T01:55:47.885Z,926.2
2018-11-04T01:56:00.315Z,926.17
2018-11-04T01:56:12.826Z,926.22
2018-11-04T01:56:25.352Z,926.21
2018-11-04T01:56:38.530Z,926.24
2018-11-04T01:56:51.091Z,926.23
2018-11-04T01:57:03.612Z,926.21
2018-11-04T01:57:16.625Z,926.25
2018-11-04T01:57:29.508Z,926.21
2018-11-04T01:57:42.424Z,926.2
2018-11-04T01:57:54.891Z,926.24
2018-11-04T01:58:06.420Z,926.24
2018-11-04T01:58:19.302Z,926.22
2018-11-04T01:58:31.728Z,926.22
2018-11-04T01:58:43.682Z,926.23
2018-11-04T01:58:56.597Z,926.18
2018-11-04T01:59:08.097Z,926.19
2018-11-04T01:59:20.995Z,926.21
2018-11-04T01:59:32.958Z,926.17
2018-11-04T01:59:45.905Z,926.17
2018-11-04T01:59:58.792Z,926.23
2018-11-04T02:00:10.784Z,926.2
2018-11-04T02:00:23.699Z,926.19
2018-11-04T02:00:35.663Z,926.22
2018-11-04T02:00:48.626Z,926.2
2018-11-04T02:01:01.532Z,926.21
2018-11-04T02:01:13.951Z,926.22
2018-11-04T02:01:26.804Z,926.19
2018-11-04T02:01:39.234Z,926.17
2018-11-04T02:01:52.210Z,926.15
2018-11-04T02:02:05.250Z,926.18
2018-11-04T02:02:17.710Z,926.2
2018-11-04T02:02:29.700Z,926.19
2018-11-04T02:02:42.151Z,926.17
2018-11-04T02:02:54.601Z,926.19
2018-11-04T02:03:06.580Z,926.19
2018-11-04T02:03:18.572Z,926.17
2018-11-04T02:03:30.992Z,926.19
2018-11-04T02:03:43.423Z,926.17
2018-11-04T02:03:55.367Z,926.17
2018-11-04T02:04:07.372Z,926.13
2018-11-04T02:04:19.851Z,926.14
2018-11-04T02:04:32.301Z,926.13
2018-11-04T02:04:45.169Z,926.13
2018-11-04T02:04:57.640Z,926.13
2018-11-04T02:05:10.142Z,926.1
2018-11-04T02:05:22.632Z,926.11
2018-11-04T02:05:35.055Z,926.09
2018-11-04T02:05:47.453Z,926.11
2018-11-04T02:06:00.315Z,926.1
2018-11-04T02:06:12.736Z,926.11
2018-11-04T02:06:24.776Z,926.07
2018-11-04T02:06:37.639Z,926.07
2018-11-04T02:06:50.544Z,926.08
2018-11-04T02:07:03.415Z,926.05
2018-11-04T02:07:15.906Z,926.1
2018-11-04T02:07:28.015Z,926.08
2018-11-04T02:07:40.453Z,926.06
2018-11-04T02:07:53.377Z,926.04
2018-11-04T02:08:05.322Z,926.05
2018-11-04T02:08:18.248Z,926.02
2018-11-04T02:08:30.742Z,926.04
2018-11-04T02:08:42.741Z,926.02
2018-11-04T02:08:55.147Z,926.04
2018-11-04T02:09:07.141Z,926.03
2018-11-04T02:09:19.587Z,926.02
2018-11-04T02:09:32.487Z,925.98
2018-11-04T02:09:44.887Z,926.02
2018-11-04T02:09:57.741Z,926.01
2018-11-04T02:10:09.768Z,926.02
2018-11-04T02:10:22.683Z,925.98
2018-11-04T02:10:35.145Z,926.03
2018-11-04T02:10:47.661Z,925.97
2018-11-04T02:10:59.624Z,925.96
2018-11-04T02:11:12.021Z,925.97
2018-11-04T02:11:24.461Z,925.98
2018-11-04T02:11:36.906Z,925.96
2018-11-04T02:11:49.783Z,925.97
2018-11-04T02:12:02.200Z,925.96
2018-11-04T02:12:14.194Z,925.99
2018-11-04T02:12:27.711Z,925.96
2018-11-04T02:12:39.669Z,925.99
2018-11-04T02:12:52.569Z,925.99
2018-11-04T02:13:05.453Z,925.98
2018-11-04T02:13:18.350Z,925.98
2018-11-04T02:13:31.213Z,925.97
2018-11-04T02:13:43.641Z,925.98
2018-11-04T02:13:56.505Z,926.04
2018-11-04T02:14:08.467Z,926.02
2018-11-04T02:14:20.944Z,926.01
2018-11-04T02:14:33.389Z,925.98
2018-11-04T02:14:44.923Z,926.03
2018-11-04T02:14:57.368Z,925.99
2018-11-04T02:15:08.833Z,926.03
2018-11-04T02:15:21.722Z,925.99
2018-11-04T02:15:33.725Z,926
2018-11-04T02:15:46.189Z,926.01
2018-11-04T02:15:58.599Z,926
2018-11-04T02:16:11.505Z,926.03
2018-11-04T02:16:24.364Z,926.06
2018-11-04T02:16:36.364Z,926
2018-11-04T02:16:49.272Z,926.04
2018-11-04T02:17:02.186Z,926.03
2018-11-04T02:17:14.657Z,926.06
2018-11-04T02:17:27.525Z,926.01
2018-11-04T02:17:39.927Z,926.07
2018-11-04T02:17:52.778Z,926.08
2018-11-04T02:18:03.807Z,926.06
2018-11-04T02:18:16.731Z,926.06
2018-11-04T02:18:29.183Z,926.07
2018-11-04T02:18:41.585Z,926.06
2018-11-04T02:18:53.584Z,926.07
2018-11-04T02:19:05.602Z,926.11
2018-11-04T02:19:18.482Z,926.07
2018-11-04T02:19:30.433Z,926.07
2018-11-04T02:19:42.842Z,926.12
2018-11-04T02:19:55.296Z,926.12
2018-11-04T02:20:08.258Z,926.13
2018-11-04T02:20:21.150Z,926.09
2018-11-04T02:20:34.094Z,926.11
2018-11-04T02:20:46.623Z,926.08
2018-11-04T02:20:59.522Z,926.12
2018-11-04T02:21:11.483Z,926.09
2018-11-04T02:21:24.345Z,926.08
2018-11-04T02:21:36.794Z,926.12
2018-11-04T02:21:48.804Z,926.09
2018-11-04T02:22:01.763Z,926.13
2018-11-04T02:22:14.194Z,926.12
2018-11-04T02:22:26.195Z,926.1
2018-11-04T02:22:38.155Z,926.09
2018-11-04T02:22:50.141Z,926.11
2018-11-04T02:23:03.084Z,926.09
2018-11-04T02:23:16.085Z,926.11
2018-11-04T02:23:29.010Z,926.09
2018-11-04T02:23:41.424Z,926.11
2018-11-04T02:23:53.470Z,926.07
2018-11-04T02:24:05.924Z,926.1
2018-11-04T02:24:18.371Z,926.07
2018-11-04T02:24:30.799Z,926.06
2018-11-04T02:24:43.247Z,926.06
2018-11-04T02:24:56.112Z,926.08
2018-11-04T02:25:07.636Z,926.08
2018-11-04T02:25:20.591Z,926.05
2018-11-04T02:25:33.495Z,926.05
2018-11-04T02:25:46.423Z,926.05
2018-11-04T02:25:58.957Z,926.03
2018-11-04T02:26:10.922Z,926.04
2018-11-04T02:26:23.776Z,926.01
2018-11-04T02:26:36.669Z,926.01
2018-11-04T02:26:49.616Z,926
2018-11-04T02:27:02.050Z,926.03
2018-11-04T02:27:14.991Z,926.05
2018-11-04T02:27:27.619Z,926.06
2018-11-04T02:27:40.523Z,926.05
2018-11-04T02:27:52.036Z,926.04
2018-11-04T02:28:04.477Z,926.02
2018-11-04T02:28:16.875Z,926.04
2018-11-04T02:28:29.798Z,926.04
2018-11-04T02:28:42.670Z,926.05
2018-11-04T02:28:54.642Z,926.07
2018-11-04T02:29:07.536Z,926.06
2018-11-04T02:29:19.521Z,926.07
2018-11-04T02:29:31.970Z,926.09
2018-11-04T02:29:44.382Z,926.11
2018-11-04T02:29:56.367Z,926.08
2018-11-04T02:30:08.846Z,926.07
2018-11-04T02:30:21.749Z,926.06
2018-11-04T02:30:34.620Z,926.1
2018-11-04T02:30:46.593Z,926.09
2018-11-04T02:30:59.659Z,926.14
2018-11-04T02:31:12.111Z,926.13
2018-11-04T02:31:24.507Z,926.13
2018-11-04T02:31:36.930Z,926.1
2018-11-04T02:31:49.829Z,926.09
2018-11-04T02:32:02.278Z,926.13
2018-11-04T02:32:14.705Z,926.12
2018-11-04T02:32:27.622Z,926.14
2018-11-04T02:32:40.489Z,926.15
2018-11-04T02:32:53.358Z,926.16
2018-11-04T02:33:05.323Z,926.14
2018-11-04T02:33:17.800Z,926.1
2018-11-04T02:33:30.698Z,926.14
2018-11-04T02:33:43.126Z,926.13
2018-11-04T02:33:55.994Z,926.12
2018-11-04T02:34:08.006Z,926.13
2018-11-04T02:34:20.455Z,926.1
2018-11-04T02:34:33.393Z,926.11
2018-11-04T02:34:45.824Z,926.14
2018-11-04T02:34:58.686Z,926.12
2018-11-04T02:35:10.656Z,926.1
2018-11-04T02:35:23.538Z,926.13
2018-11-04T02:35:36.446Z,926.12
2018-11-04T02:35:49.317Z,926.09
2018-11-04T02:36:02.213Z,926.07
2018-11-04T02:36:14.256Z,926.08
2018-11-04T02:36:27.154Z,926.07
2018-11-04T02:36:38.647Z,926.04
2018-11-04T02:36:51.052Z,926.04
2018-11-04T02:37:03.482Z,926.04
2018-11-04T02:37:16.351Z,926.01
2018-11-04T02:37:28.940Z,926.02
2018-11-04T02:37:41.360Z,926
2018-11-04T02:37:53.788Z,925.95
2018-11-04T02:38:06.208Z,925.97
2018-11-04T02:38:18.183Z,925.92
2018-11-04T02:38:31.101Z,925.92